Lake Hughes, California
Current Conditions -  °F | °C
As of 1:56 PM on Saturday 27 Dec 2014 (Local Time) from KWJF Reporting Station
Clear Clear  
Wind Chill: 43°   Ceiling: Unl
Heat Index: 47°   Visibility: 10mi
Dew Point: 14°   Wind: 9mph
Humidity: 27%   Direction: 20°NNE
Pressure: 30.34"   Gusts: NA
Location:  34.68°N, 118.45°W
Report Text: KWJF 272156Z 02008KT 10SM CLR 08/M10 A3034 RMK AO2 SLP293 T00831100
Loading
Personal Weather Stations






























Interactive Weather Map New forecast layout! Learn more

10-Day Weather Forecast

Advertisements
Track Severe Weather on mobile